Terminal Aerodrome Forecast
Issued by NWS

Home | Current Version | Previous Version | Text Only | Print | Product List | Glossary On
Versions: 1 2 3 4 5 6 7 8 9 10 11 12 13 14 15 16 17 18
000
FTUS44 KCRP 230500
TAFALI
TAF
KALI 230540Z 2306/2406 15007KT P6SM SCT020
     FM230800 VRB03KT 5SM BR SCT010
      TEMPO 2310/2314 2SM BR BKN010
     FM231400 16006KT P6SM SCT030
     FM232000 13012KT P6SM VCTS SCT040CB BKN100
     FM240200 12014G18KT P6SM SCT050 BKN100
     FM240300 14005KT P6SM BKN050=

USA.gov is the U.S. government's official web portal to all federal, state and local government web resources and services.